• Join FlightAware (Why Join?)
  • Login
  • US Flag 
05:50AM EDT


 

Airport Tracker/Info


-or-


 

Live Flight TrackerFlight Track Log ✈ TAM3239 ✈ 15-Jun-2013 ✈ SBUL / UDI - SBSP / CGH

Flight Track Log - Related Links

Times and Time Zones

All times are in EDT time to prevent confusion due to time zone crossing. See the TAM3239 flight status page for this flight to view local times or setup timezone preferences in your user account.

Time Position Orientation Groundspeed Altitude Reporting Facility
EDT Latitude Longitude Course Direction KTS MPH feet Rate Location/Type
07:32AM -18.8750 -48.1800 177° South 211 243 5,700  Level FlightAware
07:32AM -18.9000 -48.1770 174° South 242 278 6,500 2,700 Climbing FlightAware
07:32AM -18.9140 -48.1610 133° Southeast 232 267 7,700 3,360 Climbing FlightAware
07:33AM -18.9280 -48.1320 117° Southeast 240 276 9,200 3,300 Climbing FlightAware
07:33AM -18.9510 -48.0930 122° Southeast 235 270 11,500 2,820 Climbing FlightAware
07:34AM -18.9740 -48.0610 127° Southeast 248 285 13,000 2,640 Climbing FlightAware
07:35AM -19.0110 -48.0120 129° Southeast 259 298 15,200 2,640 Climbing FlightAware
07:35AM -19.0230 -48.0050 151° Southeast 265 305 15,500 1,380 Climbing FlightAware
07:36AM -19.0800 -48.0070 182° South 307 353 16,500 1,200 Climbing FlightAware
07:36AM -19.1430 -48.0100 183° South 356 410 17,200 1,620 Climbing FlightAware
07:37AM -19.2180 -48.0130 182° South 372 428 18,800 2,520 Climbing FlightAware
07:38AM -19.2940 -48.0160 182° South 368 423 20,900 2,400 Climbing FlightAware
07:39AM -19.3640 -48.0200 183° South 380 437 22,200 1,860 Climbing FlightAware
07:39AM -19.4390 -48.0230 182° South 392 451 23,500 1,740 Climbing FlightAware
07:40AM -19.5210 -48.0280 183° South 407 468 24,700 1,680 Climbing FlightAware
07:41AM -19.5960 -48.0310 182° South 414 476 25,900 1,860 Climbing FlightAware
07:41AM -19.6790 -48.0350 183° South 418 481 27,300 1,920 Climbing FlightAware
07:42AM -19.7610 -48.0390 183° South 422 486 28,600 1,560 Climbing FlightAware
07:43AM -19.8470 -48.0430 183° South 432 497 29,600 1,500 Climbing FlightAware
07:43AM -19.9270 -48.0470 183° South 434 499 30,700 1,380 Climbing FlightAware
07:44AM -20.0160 -48.0510 182° South 442 509 31,600 1,380 Climbing FlightAware
07:45AM -20.1040 -48.0560 183° South 444 511 32,700 1,560 Climbing FlightAware
07:46AM -20.1890 -48.0600 183° South 444 511 33,800 1,320 Climbing FlightAware
07:46AM -20.2720 -48.0640 183° South 447 514 34,600 1,260 Climbing FlightAware
07:47AM -20.3340 -48.0670 183° South 442 509 35,500 1,440 Climbing FlightAware
07:48AM -20.4500 -48.0720 182° South 442 509 36,700 1,260 Climbing FlightAware
07:48AM -20.5320 -48.0760 183° South 443 510 37,400 840 Climbing FlightAware
07:49AM -20.6000 -48.0800 183° South 444 511 37,900 420 Climbing FlightAware
07:50AM -20.6940 -48.0840 182° South 439 505 38,000 60 Climbing FlightAware
07:50AM -20.7890 -48.0890 183° South 441 507 38,000  Level FlightAware
07:51AM -20.8790 -48.0930 182° South 440 506 38,000  Level FlightAware
07:52AM -20.9630 -48.0970 183° South 438 504 38,000  Level FlightAware
07:53AM -21.0460 -48.1010 183° South 437 503 38,000  Level FlightAware
07:53AM -21.1320 -48.1060 183° South 437 503 38,000  Level FlightAware
07:54AM -21.2160 -48.1100 183° South 438 504 38,000  Level FlightAware
07:55AM -21.3010 -48.1140 183° South 438 504 38,000  Level FlightAware
07:55AM -21.3840 -48.1180 183° South 438 504 38,000  Level FlightAware
07:56AM -21.4750 -48.1220 182° South 437 503 38,000  Level FlightAware
07:57AM -21.5600 -48.1270 183° South 437 503 38,000  Level FlightAware
07:57AM -21.6410 -48.1310 183° South 436 502 38,000  Level FlightAware
07:58AM -21.7300 -48.1350 182° South 436 502 38,000 -300 Level FlightAware
07:59AM -21.8430 -48.1240 175° South 469 540 37,500 -1,140 Descending FlightAware
08:00AM -21.9200 -48.0820 153° Southeast 471 542 36,200 -2,040 Descending FlightAware
08:00AM -21.9990 -48.0400 154° Southeast 466 536 34,800 -2,160 Descending FlightAware
08:01AM -22.0880 -47.9940 154° Southeast 467 537 33,200 -2,040 Descending FlightAware
08:02AM -22.1550 -47.9570 153° Southeast 453 521 32,100 -1,920 Descending FlightAware
08:03AM -22.2500 -47.9070 154° Southeast 446 513 30,500 -1,980 Descending FlightAware
08:03AM -22.3230 -47.8680 154° Southeast 435 501 29,200 -1,920 Descending FlightAware
08:04AM -22.3950 -47.8290 153° Southeast 416 479 28,000 -1,860 Descending FlightAware
08:05AM -22.4730 -47.7880 154° Southeast 414 476 26,600 -1,440 Descending FlightAware
08:05AM -22.5090 -47.7680 153° Southeast 409 471 25,900 -1,920 Descending FlightAware
08:06AM -22.6110 -47.7140 154° Southeast 397 457 24,000 -2,400 Descending FlightAware
08:07AM -22.6800 -47.6750 152° Southeast 392 451 22,700 -1,740 Descending FlightAware
08:07AM -22.7300 -47.6290 140° Southeast 387 445 21,600 -1,680 Descending FlightAware
08:08AM -22.7770 -47.5850 139° Southeast 381 438 20,500 -1,860 Descending FlightAware
08:09AM -22.8540 -47.5130 139° Southeast 380 437 18,700 -1,920 Descending FlightAware
08:10AM -22.9520 -47.4220 139° Southeast 368 423 16,500 -1,920 Descending FlightAware
08:11AM -23.0270 -47.3530 140° Southeast 357 411 14,700 -1,920 Descending FlightAware
08:12AM -23.0850 -47.2980 139° Southeast 347 399 13,300 -1,620 Descending FlightAware
08:13AM -23.1330 -47.2540 140° Southeast 331 381 12,500 -1,080 Descending FlightAware
08:13AM -23.1750 -47.2150 140° Southeast 314 361 11,900 -660 Descending FlightAware
08:14AM -23.2090 -47.1830 139° Southeast 289 333 11,500 -600 Descending FlightAware
08:15AM -23.2770 -47.1190 139° Southeast 271 312 10,900 -1,200 Descending FlightAware
08:15AM -23.3050 -47.0940 141° Southeast 260 299 10,000 -1,620 Descending FlightAware
08:16AM -23.3260 -47.0750 140° Southeast 258 297 9,600 -1,020 Descending FlightAware
08:16AM -23.3550 -47.0490 141° Southeast 249 287 9,100 -600 Descending FlightAware
08:17AM -23.3790 -47.0270 140° Southeast 234 269 9,000 -120 Descending FlightAware
08:17AM -23.4020 -47.0050 139° Southeast 230 265 9,000 -540 Level FlightAware
08:18AM -23.4230 -46.9840 137° Southeast 230 265 8,500 -1,140 Descending FlightAware
08:18AM -23.4450 -46.9640 140° Southeast 233 268 8,000 -1,140 Descending FlightAware
08:18AM -23.4570 -46.9470 128° Southeast 232 267 7,700 -1,020 Descending FlightAware
08:19AM -23.4590 -46.9340 100° East 227 261 7,500 -1,080 Descending FlightAware
08:19AM -23.4600 -46.9020 92° East 229 264 7,000 -900 Descending FlightAware
08:20AM -23.4610 -46.8720 92° East 223 257 6,700 -540 Descending FlightAware
08:20AM -23.4630 -46.8230 93° East 201 231 6,400 -420 Descending FlightAware
08:21AM -23.4640 -46.7960 92° East 188 216 6,200 -540 Descending FlightAware
08:21AM -23.4670 -46.7710 97° East 180 207 5,900 -660 Descending FlightAware
08:21AM -23.4720 -46.7640 128° Southeast 179 206 5,800 -660 Descending FlightAware
08:22AM -23.4840 -46.7550 145° Southeast 177 204 5,600 -960 Descending FlightAware
08:22AM -23.5040 -46.7410 147° Southeast 179 206 5,100 -1,260 Descending FlightAware
08:23AM -23.5230 -46.7280 148° Southeast 178 205 4,500 -1,080 Descending FlightAware
08:23AM -23.5420 -46.7150 148° Southeast 153 176 4,100 -900 Descending FlightAware
08:23AM -23.5480 -46.7110 149° Southeast 141 162 3,900 -660 Descending FlightAware
08:24AM -23.5610 -46.7020 148° Southeast 126 145 3,700 -600 Descending FlightAware
08:24AM -23.5680 -46.6970 147° Southeast 124 143 3,500 -780 Descending FlightAware
08:24AM -23.5830 -46.6870 149° Southeast 127 146 3,200 -720 Descending FlightAware
08:25AM -23.5910 -46.6810 145° Southeast 129 148 3,000 -660 Descending FlightAware
08:25AM -23.6100 -46.6680 148° Southeast 128 147 2,600 -540 Descending FlightAware
08:26AM -23.6170 -46.6630 147° Southeast 127 146 2,500 -480 Descending FlightAware
08:26AM -23.6250 -46.6570 146° Southeast 125 144 2,300 -240 Descending FlightAware
08:27AM -23.6180 -46.6460 55° Northeast 117 135 2,300  Level FlightAware
08:28AM -23.6290 -46.6560 220° Southwest 117 135 -2,580 Descending FlightAware
08:28AM -23.6260 -46.6580 329° Northwest 117 135  Level FlightAware
08:28AM -23.6250 -46.6590 318° Northwest 117 135  Level FlightAware
08:29AM -23.6260 -46.6600 222° Southwest 117 135  Level FlightAware
08:30AM -23.6240 -46.6460 81° East 117 135  Level FlightAware
08:31AM -23.6250 -46.6600 266° West 117 135  Level FlightAware
08:32AM -23.6240 -46.6460 86° East 117 135  Level FlightAware
08:32AM -23.6250 -46.6600 266° West 117 135  Level FlightAware
08:33AM -23.6240 -46.6470 85° East 117 135  Level FlightAware
08:34AM -23.6240 -46.6460 90° East 117 135  Level FlightAware
08:34AM -23.6250 -46.6600 266° West 117 135  Level FlightAware
08:37AM -23.6267 -46.6554 112° Southeast  Level Estimated
08:37AM -23.6240 -46.6460 112° Southeast 117 135  Level FlightAware